createdAt,value
2019-04-05T00:00:53.104Z,9.77
2019-04-05T00:03:22.699Z,10.80
2019-04-05T00:05:52.541Z,9.50
2019-04-05T00:08:22.204Z,8.93
2019-04-05T00:10:52.299Z,10.40
2019-04-05T00:13:21.921Z,10.23
2019-04-05T00:15:51.979Z,9.10
2019-04-05T00:18:23.379Z,9.53
2019-04-05T00:20:52.564Z,9.30
2019-04-05T00:23:22.463Z,12.47
2019-04-05T00:25:51.639Z,9.63
2019-04-05T00:28:21.403Z,11.93
2019-04-05T00:30:50.903Z,9.57
2019-04-05T00:33:20.223Z,9.73
2019-04-05T00:35:51.037Z,10.57
2019-04-05T00:38:20.499Z,11.20
2019-04-05T00:40:50.839Z,12.20
2019-04-05T00:43:20.779Z,10.20
2019-04-05T00:45:50.541Z,10.47
2019-04-05T00:48:21.699Z,12.20
2019-04-05T00:50:50.782Z,10.23
2019-04-05T00:53:20.543Z,13.17
2019-04-05T00:55:50.183Z,10.90
2019-04-05T00:58:20.640Z,11.60
2019-04-05T01:00:52.444Z,11.70
2019-04-05T01:03:22.224Z,11.77
2019-04-05T01:05:51.984Z,12.27
2019-04-05T01:08:21.484Z,11.83
2019-04-05T01:10:51.464Z,13.73
2019-04-05T01:13:21.185Z,11.13
2019-04-05T01:15:51.544Z,10.20
2019-04-05T01:18:21.864Z,10.23
2019-04-05T01:20:54.685Z,10.33
2019-04-05T01:23:26.145Z,11.53
2019-04-05T01:25:57.936Z,10.50
2019-04-05T01:28:27.979Z,11.73
2019-04-05T01:30:57.834Z,11.17
2019-04-05T01:33:28.319Z,10.67
2019-04-05T01:35:57.978Z,10.73
2019-04-05T01:38:28.219Z,10.80
2019-04-05T01:41:00.218Z,10.97
2019-04-05T01:43:29.844Z,14.63
2019-04-05T01:46:01.899Z,10.80
2019-04-05T01:48:31.338Z,12.23
2019-04-05T01:51:02.079Z,10.57
2019-04-05T01:53:31.499Z,11.07
2019-04-05T01:56:01.580Z,11.00
2019-04-05T01:58:31.723Z,11.53
2019-04-05T02:01:01.747Z,9.80
2019-04-05T02:03:31.302Z,10.20
2019-04-05T02:06:01.525Z,11.13
2019-04-05T02:08:32.902Z,11.40
2019-04-05T02:11:02.406Z,11.23
2019-04-05T02:13:44.039Z,10.53
2019-04-05T02:16:13.680Z,9.80
2019-04-05T02:18:43.338Z,13.03
2019-04-05T02:21:12.923Z,9.80
2019-04-05T02:23:42.319Z,11.47
2019-04-05T02:26:12.138Z,13.03
2019-04-05T02:28:42.099Z,11.20
2019-04-05T02:31:15.280Z,10.07
2019-04-05T02:33:44.606Z,9.87
2019-04-05T02:36:17.680Z,10.40
2019-04-05T02:38:48.172Z,13.13
2019-04-05T02:41:19.959Z,12.03
2019-04-05T02:43:51.923Z,10.77
2019-04-05T02:46:24.445Z,9.37
2019-04-05T02:48:56.860Z,10.70
2019-04-05T02:51:27.719Z,10.83
2019-04-05T02:53:59.682Z,10.07
2019-04-05T02:56:31.584Z,9.80
2019-04-05T02:59:02.730Z,11.57
2019-04-05T03:01:33.917Z,11.07
2019-04-05T03:04:04.810Z,9.77
2019-04-05T03:06:35.426Z,11.27
2019-04-05T03:09:07.414Z,9.70
2019-04-05T03:11:39.027Z,10.57
2019-04-05T03:14:11.527Z,11.70
2019-04-05T03:16:43.673Z,11.43
2019-04-05T03:19:16.386Z,11.17
2019-04-05T03:21:49.434Z,10.43
2019-04-05T03:24:22.068Z,9.53
2019-04-05T03:26:54.493Z,10.37
2019-04-05T03:29:24.450Z,10.63
2019-04-05T03:31:54.565Z,9.37
2019-04-05T03:34:26.021Z,10.50
2019-04-05T03:36:56.760Z,9.93
2019-04-05T03:39:27.983Z,9.60
2019-04-05T03:41:59.438Z,9.97
2019-04-05T03:44:29.319Z,10.33
2019-04-05T03:47:00.839Z,10.07
2019-04-05T03:49:31.499Z,11.93
2019-04-05T03:52:02.735Z,9.33
2019-04-05T03:54:31.939Z,11.43
2019-04-05T03:57:01.725Z,10.37
2019-04-05T03:59:34.376Z,10.23
2019-04-05T04:02:04.212Z,9.77
2019-04-05T04:04:34.018Z,10.63
2019-04-05T04:07:04.285Z,10.70
2019-04-05T04:09:34.548Z,9.77
2019-04-05T04:12:04.325Z,9.20
2019-04-05T04:14:34.188Z,10.23
2019-04-05T04:17:12.033Z,10.27
2019-04-05T04:19:36.387Z,10.10
2019-04-05T04:22:11.866Z,10.23
2019-04-05T04:24:41.611Z,9.17
2019-04-05T04:27:12.041Z,9.90
2019-04-05T04:29:42.146Z,9.03
2019-04-05T04:32:11.838Z,8.07
2019-04-05T04:34:41.811Z,8.27
2019-04-05T04:37:11.259Z,11.07
2019-04-05T04:39:41.639Z,9.10
2019-04-05T04:42:12.738Z,11.37
2019-04-05T04:44:43.399Z,8.83
2019-04-05T04:47:26.543Z,8.83
2019-04-05T04:49:50.759Z,8.37
2019-04-05T04:52:20.758Z,7.13
2019-04-05T04:54:50.200Z,8.90
2019-04-05T04:57:20.261Z,8.30
2019-04-05T04:59:49.659Z,9.97
2019-04-05T05:02:19.739Z,8.47
2019-04-05T05:04:49.120Z,6.83
2019-04-05T05:07:19.080Z,9.03
2019-04-05T05:09:48.779Z,9.00
2019-04-05T05:12:18.579Z,8.83
2019-04-05T05:14:48.624Z,6.57
2019-04-05T05:17:18.359Z,7.70
2019-04-05T05:19:49.118Z,7.67
2019-04-05T05:22:19.066Z,8.57
2019-04-05T05:24:48.404Z,9.63
2019-04-05T05:27:25.522Z,7.23
2019-04-05T05:29:55.162Z,7.70
2019-04-05T05:32:25.265Z,8.93
2019-04-05T05:35:02.001Z,8.00
2019-04-05T05:37:28.301Z,6.90
2019-04-05T05:39:57.761Z,10.37
2019-04-05T05:42:27.259Z,10.50
2019-04-05T05:44:57.198Z,8.33
2019-04-05T05:47:27.199Z,11.47
2019-04-05T05:49:57.039Z,8.63
2019-04-05T05:52:27.478Z,8.80
2019-04-05T05:54:57.140Z,9.17
2019-04-05T05:57:27.041Z,8.43
2019-04-05T05:59:58.497Z,10.07
2019-04-05T06:02:28.840Z,10.37
2019-04-05T06:04:58.763Z,10.23
2019-04-05T06:07:28.683Z,8.03
2019-04-05T06:09:57.969Z,8.70
2019-04-05T06:12:28.011Z,7.57
2019-04-05T06:14:57.644Z,11.50
2019-04-05T06:17:28.105Z,10.17
2019-04-05T06:19:57.519Z,9.83
2019-04-05T06:22:26.794Z,10.67
2019-04-05T06:24:56.334Z,9.40
2019-04-05T06:27:25.724Z,8.27
2019-04-05T06:29:55.619Z,9.73
2019-04-05T06:32:25.643Z,9.60
2019-04-05T06:34:55.471Z,8.93
2019-04-05T06:37:25.560Z,10.47
2019-04-05T06:39:55.159Z,8.53
2019-04-05T06:42:24.818Z,10.50
2019-04-05T06:44:54.080Z,9.97
2019-04-05T06:47:24.341Z,9.90
2019-04-05T06:49:53.939Z,10.10
2019-04-05T06:52:23.959Z,12.70
2019-04-05T06:54:53.719Z,9.73
2019-04-05T06:57:23.220Z,10.63
2019-04-05T06:59:52.999Z,10.67
2019-04-05T07:02:23.962Z,13.53
2019-04-05T07:04:53.444Z,11.60
2019-04-05T07:07:25.723Z,11.37
2019-04-05T07:09:55.083Z,11.50
2019-04-05T07:12:24.780Z,10.60
2019-04-05T07:14:56.236Z,10.90
2019-04-05T07:17:26.359Z,9.87
2019-04-05T07:19:56.138Z,11.57
2019-04-05T07:22:35.848Z,11.57
2019-04-05T07:24:57.019Z,10.80
2019-04-05T07:27:27.901Z,10.47
2019-04-05T07:29:57.560Z,14.13
2019-04-05T07:32:27.804Z,11.27
2019-04-05T07:34:58.475Z,13.20
2019-04-05T07:37:28.958Z,13.67
2019-04-05T07:39:59.440Z,14.77
2019-04-05T07:42:29.881Z,12.57
2019-04-05T07:44:59.839Z,13.30
2019-04-05T07:47:31.600Z,12.57
2019-04-05T07:50:01.379Z,13.83
2019-04-05T07:52:31.459Z,15.00
2019-04-05T07:55:01.335Z,13.57
2019-04-05T07:57:32.144Z,14.13
2019-04-05T08:00:03.589Z,12.20
2019-04-05T08:02:37.379Z,11.27
2019-04-05T08:05:08.464Z,13.20
2019-04-05T08:07:44.020Z,13.77
2019-04-05T08:10:13.559Z,16.93
2019-04-05T08:12:43.880Z,14.17
2019-04-05T08:15:14.920Z,13.93
2019-04-05T08:17:46.179Z,13.20
2019-04-05T08:20:16.741Z,12.33
2019-04-05T08:22:46.741Z,14.23
2019-04-05T08:25:19.920Z,13.90
2019-04-05T08:27:53.480Z,13.23
2019-04-05T08:30:24.378Z,15.17
2019-04-05T08:32:54.441Z,19.13
2019-04-05T08:35:24.207Z,14.60
2019-04-05T08:37:54.519Z,14.33
2019-04-05T08:40:23.979Z,12.97
2019-04-05T08:42:53.999Z,13.70
2019-04-05T08:45:23.738Z,14.03
2019-04-05T08:47:53.421Z,15.00
2019-04-05T08:50:24.781Z,15.60
2019-04-05T08:52:56.964Z,16.63
2019-04-05T08:55:25.678Z,15.40
2019-04-05T08:57:57.405Z,14.13
2019-04-05T09:10:48.169Z,16.93
2019-04-05T09:13:17.990Z,19.00
2019-04-05T09:15:48.416Z,19.90
2019-04-05T09:18:18.799Z,16.30
2019-04-05T09:20:48.490Z,17.17
2019-04-05T09:23:18.350Z,13.97
2019-04-05T09:25:51.681Z,19.80
2019-04-05T09:28:21.706Z,20.33
2019-04-05T09:30:51.952Z,18.37
2019-04-05T09:33:21.979Z,17.83
2019-04-05T09:35:54.239Z,18.60
2019-04-05T09:38:24.279Z,17.17
2019-04-05T09:40:54.419Z,19.43
2019-04-05T09:43:24.452Z,18.77
2019-04-05T09:45:54.103Z,20.70
2019-04-05T09:48:24.299Z,17.83
2019-04-05T09:50:54.029Z,19.77
2019-04-05T09:53:24.042Z,18.87
2019-04-05T09:55:54.899Z,19.87
2019-04-05T09:58:24.859Z,18.60
2019-04-05T10:00:55.783Z,23.50
2019-04-05T10:03:26.543Z,19.67
2019-04-05T10:05:56.610Z,19.63
2019-04-05T10:08:26.164Z,19.90
2019-04-05T10:10:56.642Z,22.07
2019-04-05T10:13:26.701Z,18.90
2019-04-05T10:15:56.782Z,19.90
2019-04-05T10:18:26.121Z,17.93
2019-04-05T10:20:56.243Z,19.83
2019-04-05T10:23:26.711Z,18.57
2019-04-05T10:25:57.082Z,21.70
2019-04-05T10:28:27.322Z,20.60
2019-04-05T10:30:57.543Z,23.20
2019-04-05T10:33:27.820Z,19.77
2019-04-05T10:35:57.759Z,20.77
2019-04-05T10:38:28.062Z,23.27
2019-04-05T10:41:00.993Z,23.93
2019-04-05T10:43:31.431Z,23.27
2019-04-05T10:46:02.270Z,22.83
2019-04-05T10:48:35.249Z,27.90
2019-04-05T10:51:07.766Z,22.97
2019-04-05T10:53:38.186Z,24.33
2019-04-05T10:56:08.765Z,27.20
2019-04-05T10:58:38.552Z,25.67
2019-04-05T11:01:08.120Z,25.47
2019-04-05T11:03:39.606Z,24.63
2019-04-05T11:06:10.128Z,24.13
2019-04-05T11:08:39.958Z,27.53
2019-04-05T11:11:09.842Z,29.83
2019-04-05T11:13:39.588Z,27.43
2019-04-05T11:16:09.929Z,28.93
2019-04-05T11:18:39.530Z,28.33
2019-04-05T11:21:09.422Z,31.43
2019-04-05T11:23:39.508Z,30.43
2019-04-05T11:26:08.948Z,31.77
2019-04-05T11:28:38.386Z,30.37
2019-04-05T11:31:09.020Z,30.67
2019-04-05T11:33:38.619Z,32.73
2019-04-05T11:36:08.619Z,32.67
2019-04-05T11:38:38.759Z,30.87
2019-04-05T11:41:08.539Z,31.00
2019-04-05T11:43:43.740Z,30.47
2019-04-05T11:46:13.339Z,31.03
2019-04-05T11:48:43.442Z,30.80
2019-04-05T11:51:15.489Z,32.80
2019-04-05T11:53:45.406Z,34.47
2019-04-05T11:56:17.463Z,31.00
2019-04-05T11:58:48.787Z,33.43
2019-04-05T12:01:23.355Z,33.00
2019-04-05T12:03:51.761Z,30.67
2019-04-05T12:06:21.410Z,34.47
2019-04-05T12:08:50.683Z,30.97
2019-04-05T12:11:21.004Z,30.53
2019-04-05T12:13:50.948Z,35.63
2019-04-05T12:16:20.405Z,34.20
2019-04-05T12:18:50.462Z,33.60
2019-04-05T12:21:21.080Z,33.13
2019-04-05T12:23:50.547Z,32.70
2019-04-05T12:26:20.776Z,33.50
2019-04-05T12:28:50.403Z,35.87
2019-04-05T12:31:21.366Z,32.63
2019-04-05T12:33:52.351Z,36.97
2019-04-05T12:36:22.754Z,33.13
2019-04-05T12:38:54.336Z,30.13
2019-04-05T12:41:24.123Z,31.50
2019-04-05T12:43:54.267Z,32.60
2019-04-05T12:46:28.387Z,33.57
2019-04-05T12:48:59.006Z,35.73
2019-04-05T12:51:32.140Z,33.03
2019-04-05T12:54:04.461Z,39.80
2019-04-05T12:56:34.425Z,35.60
2019-04-05T12:59:04.567Z,35.27
2019-04-05T13:01:35.386Z,34.33
2019-04-05T13:04:05.725Z,33.07
2019-04-05T13:06:35.344Z,27.97
2019-04-05T13:09:06.708Z,38.13
2019-04-05T13:11:38.604Z,35.17
2019-04-05T13:14:09.487Z,29.93
2019-04-05T13:16:38.845Z,34.93
2019-04-05T13:19:08.284Z,37.27
2019-04-05T13:21:45.721Z,37.40
2019-04-05T13:24:15.525Z,33.83
2019-04-05T13:26:45.029Z,33.90
2019-04-05T13:29:14.665Z,34.27
2019-04-05T13:31:49.671Z,35.73
2019-04-05T13:34:20.144Z,37.53
2019-04-05T13:36:49.785Z,37.13
2019-04-05T13:39:21.959Z,34.20
2019-04-05T13:41:51.168Z,38.33
2019-04-05T13:44:23.014Z,36.13
2019-04-05T13:46:54.722Z,31.87
2019-04-05T13:49:26.142Z,33.97
2019-04-05T13:51:58.982Z,33.23
2019-04-05T13:54:28.311Z,34.13
2019-04-05T13:56:58.464Z,30.47
2019-04-05T13:59:29.924Z,32.03
2019-04-05T14:02:05.882Z,37.07
2019-04-05T14:04:30.365Z,38.73
2019-04-05T14:06:59.948Z,35.03
2019-04-05T14:09:31.577Z,35.63
2019-04-05T14:12:03.246Z,38.03
2019-04-05T14:14:32.985Z,35.73
2019-04-05T14:17:03.809Z,35.93
2019-04-05T14:19:33.779Z,37.37
2019-04-05T14:22:08.682Z,35.77
2019-04-05T14:24:36.859Z,38.13
2019-04-05T14:27:08.442Z,36.77
2019-04-05T14:29:43.080Z,30.67
2019-04-05T14:32:20.880Z,29.53
2019-04-05T14:34:49.258Z,31.10
2019-04-05T14:37:22.080Z,29.73
2019-04-05T14:40:14.121Z,34.70
2019-04-05T14:42:45.767Z,29.43
2019-04-05T14:45:17.501Z,27.80
2019-04-05T14:47:48.361Z,32.47
2019-04-05T14:50:20.060Z,33.47
2019-04-05T14:52:50.739Z,31.80
2019-04-05T14:55:20.338Z,35.17
2019-04-05T14:57:50.521Z,36.50
2019-04-05T15:00:21.452Z,33.50
2019-04-05T15:02:50.757Z,36.23
2019-04-05T15:05:20.824Z,36.53
2019-04-05T15:07:51.722Z,34.53
2019-04-05T15:10:26.177Z,32.87
2019-04-05T15:12:54.984Z,35.77
2019-04-05T15:15:24.262Z,35.40
2019-04-05T15:17:54.548Z,30.03
2019-04-05T15:20:24.136Z,33.90
2019-04-05T15:22:56.741Z,27.53
2019-04-05T15:25:26.821Z,30.00
2019-04-05T15:27:56.899Z,30.27
2019-04-05T15:30:26.960Z,31.30
2019-04-05T15:33:00.000Z,30.50
2019-04-05T15:35:29.921Z,33.50
2019-04-05T15:38:02.140Z,31.10
2019-04-05T15:40:31.665Z,27.97
2019-04-05T15:43:02.092Z,28.23
2019-04-05T15:45:31.938Z,28.27
2019-04-05T15:48:22.948Z,27.37
2019-04-05T15:50:57.815Z,24.33
2019-04-05T15:53:24.161Z,20.93
2019-04-05T15:55:54.060Z,25.20
2019-04-05T15:58:24.921Z,22.57
2019-04-05T16:00:55.604Z,23.10
2019-04-05T16:03:32.080Z,24.47
2019-04-05T16:06:01.239Z,24.17
2019-04-05T16:08:30.358Z,21.80
2019-04-05T16:11:02.521Z,21.43
2019-04-05T16:13:32.162Z,19.43
2019-04-05T16:16:02.360Z,20.87
2019-04-05T16:18:32.547Z,22.33
2019-04-05T16:21:02.019Z,19.57
2019-04-05T16:23:31.419Z,19.53
2019-04-05T16:26:02.222Z,20.37
2019-04-05T16:28:32.359Z,21.10
2019-04-05T16:31:02.243Z,20.47
2019-04-05T16:33:34.062Z,20.00
2019-04-05T16:36:04.261Z,16.50
2019-04-05T16:38:34.605Z,15.10
2019-04-05T16:41:07.703Z,20.10
2019-04-05T16:43:37.562Z,20.03
2019-04-05T16:46:07.883Z,17.03
2019-04-05T16:48:37.442Z,20.07
2019-04-05T16:51:06.845Z,19.43
2019-04-05T16:53:38.162Z,19.97
2019-04-05T16:56:07.919Z,22.10
2019-04-05T16:58:38.058Z,16.33
2019-04-05T17:01:09.301Z,16.50
2019-04-05T17:03:38.858Z,19.10
2019-04-05T17:06:09.205Z,14.13
2019-04-05T17:08:38.660Z,19.87
2019-04-05T17:11:08.623Z,22.43
2019-04-05T17:13:38.959Z,18.83
2019-04-05T17:16:11.480Z,18.97
2019-04-05T17:18:42.161Z,17.13
2019-04-05T17:21:12.001Z,18.07
2019-04-05T17:23:41.769Z,15.53
2019-04-05T17:26:12.428Z,16.97
2019-04-05T17:28:42.736Z,19.90
2019-04-05T17:31:14.280Z,20.30
2019-04-05T17:33:45.022Z,17.17
2019-04-05T17:36:14.539Z,13.67
2019-04-05T17:38:45.289Z,17.87
2019-04-05T17:41:15.527Z,17.63
2019-04-05T17:43:51.947Z,20.20
2019-04-05T17:46:21.729Z,16.10
2019-04-05T17:48:53.086Z,17.70
2019-04-05T17:51:28.460Z,17.13
2019-04-05T17:53:58.985Z,17.37
2019-04-05T17:56:30.185Z,20.60
2019-04-05T17:59:01.690Z,18.47
2019-04-05T18:01:32.522Z,17.97
2019-04-05T18:04:03.529Z,16.87
2019-04-05T18:06:34.564Z,15.73
2019-04-05T18:09:06.106Z,17.93
2019-04-05T18:11:38.646Z,16.93
2019-04-05T18:14:08.406Z,14.17
2019-04-05T18:16:39.745Z,17.40
2019-04-05T18:19:10.184Z,17.40
2019-04-05T18:21:40.866Z,19.23
2019-04-05T18:24:11.224Z,18.50
2019-04-05T18:27:00.462Z,17.97
2019-04-05T18:29:31.969Z,18.97
2019-04-05T18:32:02.624Z,16.37
2019-04-05T18:34:33.368Z,18.00
2019-04-05T18:37:08.919Z,17.87
2019-04-05T18:39:38.922Z,18.53
2019-04-05T18:42:09.600Z,17.13
2019-04-05T18:44:39.640Z,18.27
2019-04-05T18:47:11.662Z,18.87
2019-04-05T18:49:44.203Z,18.70
2019-04-05T18:52:19.542Z,19.40
2019-04-05T18:54:52.959Z,19.17
2019-04-05T18:57:22.921Z,20.83
2019-04-05T18:59:54.839Z,20.70
2019-04-05T19:02:24.246Z,20.93
2019-04-05T19:04:56.768Z,19.87
2019-04-05T19:07:26.970Z,20.77
2019-04-05T19:09:57.157Z,17.93
2019-04-05T19:12:27.374Z,18.40
2019-04-05T19:15:00.787Z,15.73
2019-04-05T19:17:30.309Z,15.70
2019-04-05T19:20:00.577Z,16.33
2019-04-05T19:22:30.684Z,15.07
2019-04-05T19:25:00.417Z,8.37
2019-04-05T19:27:30.022Z,9.30
2019-04-05T19:50:25.255Z,11.40
2019-04-05T19:53:01.960Z,12.73
2019-04-05T19:55:34.379Z,13.07
2019-04-05T19:58:03.700Z,9.77
2019-04-05T20:00:43.539Z,11.80
2019-04-05T20:03:15.057Z,9.33
2019-04-05T20:05:46.465Z,12.70
2019-04-05T20:08:16.593Z,14.07
2019-04-05T20:10:56.976Z,14.73
2019-04-05T20:13:31.277Z,14.13
2019-04-05T20:16:13.338Z,15.73
2019-04-05T20:18:55.298Z,13.67
2019-04-05T20:21:44.437Z,13.67
2019-04-05T20:24:14.403Z,13.03
2019-04-05T20:26:52.796Z,11.07
2019-04-05T20:29:25.398Z,10.87
2019-04-05T20:32:08.262Z,12.93
2019-04-05T20:34:38.835Z,11.53
2019-04-05T20:37:15.015Z,14.57
2019-04-05T20:39:50.997Z,12.17
2019-04-05T20:42:34.355Z,11.57
2019-04-05T20:45:06.415Z,15.80
2019-04-05T20:47:35.962Z,11.40
2019-04-05T20:50:10.695Z,12.83
2019-04-05T20:52:48.839Z,10.63
2019-04-05T20:55:23.537Z,11.33
2019-04-05T20:58:01.385Z,11.20
2019-04-05T21:00:32.897Z,9.20
2019-04-05T21:03:13.941Z,8.63
2019-04-05T21:05:48.394Z,8.83
2019-04-05T21:08:18.445Z,7.13
2019-04-05T21:10:48.017Z,9.27
2019-04-05T21:13:17.556Z,7.13
2019-04-05T21:15:47.558Z,9.07
2019-04-05T21:18:16.859Z,8.77
2019-04-05T21:20:46.995Z,8.37
2019-04-05T21:23:16.705Z,9.10
2019-04-05T21:25:46.897Z,9.10
2019-04-05T21:28:16.525Z,10.43
2019-04-05T21:30:46.036Z,10.40
2019-04-05T21:33:15.707Z,8.47
2019-04-05T21:35:46.174Z,8.80
2019-04-05T21:38:16.036Z,8.60
2019-04-05T21:40:45.797Z,9.37
2019-04-05T21:43:15.477Z,8.97
2019-04-05T21:45:48.697Z,8.63
2019-04-05T21:48:19.195Z,9.17
2019-04-05T21:50:48.696Z,9.50
2019-04-05T21:53:19.314Z,9.17
2019-04-05T21:55:48.775Z,12.60
2019-04-05T21:58:18.594Z,9.63
2019-04-05T22:00:49.919Z,10.00
2019-04-05T22:03:22.056Z,8.70
2019-04-05T22:05:51.859Z,9.60
2019-04-05T22:08:21.460Z,10.33
2019-04-05T22:10:50.795Z,10.47
2019-04-05T22:13:21.375Z,9.57
2019-04-05T22:15:50.947Z,11.63
2019-04-05T22:18:20.814Z,9.93
2019-04-05T22:20:50.515Z,10.43
2019-04-05T22:23:20.578Z,10.50
2019-04-05T22:25:50.836Z,10.47
2019-04-05T22:28:20.214Z,10.67
2019-04-05T22:30:50.144Z,10.43
2019-04-05T22:33:23.215Z,11.43
2019-04-05T22:35:52.595Z,11.17
2019-04-05T22:38:21.796Z,10.20
2019-04-05T22:40:51.941Z,10.30
2019-04-05T22:43:21.796Z,10.93
2019-04-05T22:45:52.035Z,10.30
2019-04-05T22:48:22.135Z,11.07
2019-04-05T22:50:52.575Z,10.20
2019-04-05T22:53:23.111Z,10.23
2019-04-05T22:55:52.635Z,12.60
2019-04-05T22:58:22.117Z,12.37
2019-04-05T23:00:51.831Z,10.50
2019-04-05T23:03:24.607Z,11.67
2019-04-05T23:05:54.115Z,10.90
2019-04-05T23:08:24.419Z,11.03
2019-04-05T23:10:53.737Z,10.43
2019-04-05T23:13:23.076Z,11.70
2019-04-05T23:15:52.915Z,13.47
2019-04-05T23:18:22.674Z,12.50
2019-04-05T23:20:52.435Z,12.53
2019-04-05T23:23:22.295Z,13.77
2019-04-05T23:25:51.794Z,13.47
2019-04-05T23:28:21.396Z,14.13
2019-04-05T23:30:51.286Z,17.10
2019-04-05T23:33:20.416Z,18.27
2019-04-05T23:35:50.054Z,16.53
2019-04-05T23:38:20.135Z,18.17
2019-04-05T23:40:49.555Z,17.27
2019-04-05T23:43:19.054Z,14.93
2019-04-05T23:45:49.014Z,15.80
2019-04-05T23:48:18.717Z,15.77
2019-04-05T23:50:48.435Z,15.60
2019-04-05T23:53:17.959Z,15.10
2019-04-05T23:55:48.061Z,14.70
2019-04-05T23:58:18.515Z,15.17
